Billings, MT

4:54 PM MDT on April 26, 2015 (GMT -0600)
Downtown Billings | | Change Station
CLOSE
Current Station
Personal Weather Station
Location: Billings, MT
Elevation: 3127 ft
Nearby Weather Stations

Elev 3127 ft 45.78 °N, 108.50 °W | Updated 27 minutes ago

Rain
Rain
38.5 °F
Feels Like 31 °F
N
11.2
Wind Variable Wind from NNE
Gusts 17.4 mph

Today
High -- | Low -- °F
--% Chance of Precip.
Yesterday
High -- | Low -- °F
Precip. -- in
6:09 AM 8:14 PM
First Quarter, 59% visible
Pressure 30.21 in
Visibility 9.0 miles
Clouds Scattered Clouds 400 ft
Overcast 600 ft
Windchill 31 °F
Dew Point 36 °F
Humidity 91%
Rainfall -999.00 in
Snow Depth Not available.
UV 2 out of 12
Pollen 7.50 out of 12
Air Quality Not available.
Flu Activity Local Activity
METAR KBIL 262153Z 03014KT 9SM -RA SCT004 OVC006 02/01 A3015 RMK AO2 SLP230 P0001 T00220011

More Conditions Fewer Conditions

Pressure 30.21 in
Visibility 9.0 miles
Clouds Scattered Clouds 400 ft
Overcast 600 ft
Windchill 31 °F
Dew Point 36 °F
Humidity 91%
Rainfall -999.00 in
Snow Depth Not available.
UV 2 out of 12
Pollen 7.50 out of 12
Air Quality Not available.
Flu Activity Local Activity
METAR KBIL 262153Z 03014KT 9SM -RA SCT004 OVC006 02/01 A3015 RMK AO2 SLP230 P0001 T00220011

More Conditions Fewer Conditions

The full scope of the disaster following a powerful 7.8-magnitude earthquake in Nepal may not come into view for days, but global charities are already sending emergency aid. Click to see how you can help.

10-Day Weather Forecast

Almanac

Astronomy

Apr. 26, 2015 Rise Set
Actual Time
Civil Twilight
Nautical Twilight
Astronomical Twilight
Moon
Length of Visible Light
Length of Day
Tomorrow will be .
, % of the Moon is Illuminated

Today's Extremes

State Highs State Lows

Community

WunderPhotos

Upload Photos

1,817,149 photos uploaded!

WunderBlogs® & News

Nearby

Air Quality

  Air Quality AQ Index Pollutant
Not available.

Snow Depth

Station Depth Elevation

Earthquake Activity

City Distance Mag. Time & Date
Minimum magnitude displayed is 2.5.

Coastal Water Temperatures

Place Temperature

Stations

Nearby Weather Stations

Station Location Temp. Windchill Dew Point Humidity Wind Precip. Elev Updated Type